Cape Unity — 3ENK4 — position and weather

sailwx.info

Track history (hours):
 
Tides and Currents Weather Stations Pressure Air Temp Water Temp Dewpoint Dewpoint Depression Visibility Wind Speed Wind Dir Waves Ship Positions

Cape Unity

Last reported at 2018-Jul-15 19:53 UTC. Time now 2018-Jul-18 07:04 UTC.
Position N 35°01' E 129°28'.

Length 289 m; draft 16.6 m.

Type: Cargo ship. MMSI: 355458000.

Date/timePositionNaut miles runAvg speedWind from/ knotsBaromVisibWave heightAir tempDewpointWater temp
2018-Jul-15 19:53N 35°01' E 129°28'2014.0
2018-Jul-15 18:27N 34°49' E 129°09'  
2018-Jul-07 01:59N 01°24' E 104°28'612.9
2018-Jul-07 01:30N 01°20' E 104°23'612.2
2018-Jul-07 01:00N 01°17' E 104°18'712.8
2018-Jul-07 00:29N 01°16' E 104°11'612.3
2018-Jul-07 00:00N 01°15' E 104°06'510.6
2018-Jul-06 23:30N 01°15' E 104°00'3 6.6
2018-Jul-06 23:00N 01°16' E 103°57'0 0.4
2018-Jul-06 22:28N 01°16' E 103°57'0 0.0
2018-Jul-06 21:58N 01°16' E 103°57'0 0.0
2018-Jul-06 21:16N 01°16' E 103°57'0 0.0
2018-Jul-06 20:58N 01°16' E 103°57'0 0.1
2018-Jul-06 20:28N 01°16' E 103°57'0 0.1
2018-Jul-06 19:50N 01°16' E 103°57'0 0.2
2018-Jul-06 19:28N 01°16' E 103°57'0 0.1
2018-Jul-06 18:46N 01°16' E 103°57'0 0.0
2018-Jul-06 18:28N 01°16' E 103°57'0 0.1
2018-Jul-06 17:58N 01°16' E 103°57'0 0.0
2018-Jul-06 17:25N 01°16' E 103°57'0 0.1
2018-Jul-06 16:55N 01°16' E 103°57'0 0.1
2018-Jul-06 16:29N 01°16' E 103°57'0 0.1
2018-Jul-06 15:58N 01°16' E 103°57'0 0.1
2018-Jul-06 15:22N 01°16' E 103°57'0 0.0
2018-Jul-06 14:58N 01°16' E 103°57'0 0.1
2018-Jul-06 14:25N 01°16' E 103°57'0 0.0
2018-Jul-06 13:55N 01°16' E 103°57'0 0.0
2018-Jul-06 13:10N 01°16' E 103°57'0 0.1
2018-Jul-06 12:47N 01°16' E 103°57'0 0.2
2018-Jul-06 12:29N 01°16' E 103°57'0 0.3
2018-Jul-06 12:00N 01°16' E 103°57'1 1.1
2018-Jul-06 11:30N 01°16' E 103°57'2 4.5
2018-Jul-06 11:00N 01°14' E 103°56'4 7.7
2018-Jul-06 10:28N 01°12' E 103°53'4 8.2
2018-Jul-06 10:00N 01°11' E 103°49'4 8.6
2018-Jul-06 09:30N 01°08' E 103°45'4 8.1
2018-Jul-06 08:59N 01°05' E 103°42'4 9.0
2018-Jul-06 08:30N 01°03' E 103°38'4 8.8
2018-Jul-06 08:00N 01°05' E 103°34'4 8.4
2018-Jul-06 07:30N 01°07' E 103°31'611.8
2018-Jul-06 06:59N 01°10' E 103°26'611.7
2018-Jul-06 06:30N 01°14' E 103°21'611.7
2018-Jul-06 05:59N 01°18' E 103°17'912.4
2018-Jul-06 05:18N 01°24' E 103°10'  
Track history (hours):
 
Tides and Currents Weather Stations Pressure Air Temp Water Temp Dewpoint Dewpoint Depression Visibility Wind Speed Wind Dir Waves Ship Positions

Cape Unity

Last reported at 2018-Jul-15 19:53 UTC. Time now 2018-Jul-18 07:04 UTC.
Position N 35°01' E 129°28'.

Length 289 m; draft 16.6 m.

Type: Cargo ship. MMSI: 355458000.

Date/timePositionNaut miles runAvg speedWind from/ knotsBaromVisibWave heightAir tempDewpointWater temp
2018-Jul-15 19:53N 35°01' E 129°28'2014.0
2018-Jul-15 18:27N 34°49' E 129°09'  
2018-Jul-07 01:59N 01°24' E 104°28'612.9
2018-Jul-07 01:30N 01°20' E 104°23'612.2
2018-Jul-07 01:00N 01°17' E 104°18'712.8
2018-Jul-07 00:29N 01°16' E 104°11'612.3
2018-Jul-07 00:00N 01°15' E 104°06'510.6
2018-Jul-06 23:30N 01°15' E 104°00'3 6.6
2018-Jul-06 23:00N 01°16' E 103°57'0 0.4
2018-Jul-06 22:28N 01°16' E 103°57'0 0.0
2018-Jul-06 21:58N 01°16' E 103°57'0 0.0
2018-Jul-06 21:16N 01°16' E 103°57'0 0.0
2018-Jul-06 20:58N 01°16' E 103°57'0 0.1
2018-Jul-06 20:28N 01°16' E 103°57'0 0.1
2018-Jul-06 19:50N 01°16' E 103°57'0 0.2
2018-Jul-06 19:28N 01°16' E 103°57'0 0.1
2018-Jul-06 18:46N 01°16' E 103°57'0 0.0
2018-Jul-06 18:28N 01°16' E 103°57'0 0.1
2018-Jul-06 17:58N 01°16' E 103°57'0 0.0
2018-Jul-06 17:25N 01°16' E 103°57'0 0.1
2018-Jul-06 16:55N 01°16' E 103°57'0 0.1
2018-Jul-06 16:29N 01°16' E 103°57'0 0.1
2018-Jul-06 15:58N 01°16' E 103°57'0 0.1
2018-Jul-06 15:22N 01°16' E 103°57'0 0.0
2018-Jul-06 14:58N 01°16' E 103°57'0 0.1
2018-Jul-06 14:25N 01°16' E 103°57'0 0.0
2018-Jul-06 13:55N 01°16' E 103°57'0 0.0
2018-Jul-06 13:10N 01°16' E 103°57'0 0.1
2018-Jul-06 12:47N 01°16' E 103°57'0 0.2
2018-Jul-06 12:29N 01°16' E 103°57'0 0.3
2018-Jul-06 12:00N 01°16' E 103°57'1 1.1
2018-Jul-06 11:30N 01°16' E 103°57'2 4.5
2018-Jul-06 11:00N 01°14' E 103°56'4 7.7
2018-Jul-06 10:28N 01°12' E 103°53'4 8.2
2018-Jul-06 10:00N 01°11' E 103°49'4 8.6
2018-Jul-06 09:30N 01°08' E 103°45'4 8.1
2018-Jul-06 08:59N 01°05' E 103°42'4 9.0
2018-Jul-06 08:30N 01°03' E 103°38'4 8.8
2018-Jul-06 08:00N 01°05' E 103°34'4 8.4
2018-Jul-06 07:30N 01°07' E 103°31'611.8
2018-Jul-06 06:59N 01°10' E 103°26'611.7
2018-Jul-06 06:30N 01°14' E 103°21'611.7
2018-Jul-06 05:59N 01°18' E 103°17'912.4
2018-Jul-06 05:18N 01°24' E 103°10'  

Dump ship's entire track history